createdAt,value
2017-01-28T00:00:59.359Z,1010.07
2017-01-28T00:01:59.404Z,1010.03
2017-01-28T00:02:59.412Z,1010.05
2017-01-28T00:03:59.339Z,1010.03
2017-01-28T00:04:59.170Z,1010.01
2017-01-28T00:05:59.570Z,1010.02
2017-01-28T00:06:59.215Z,1009.98
2017-01-28T00:07:59.486Z,1010.01
2017-01-28T00:08:59.474Z,1010.01
2017-01-28T00:09:59.212Z,1009.92
2017-01-28T00:10:59.403Z,1009.94
2017-01-28T00:11:59.241Z,1009.93
2017-01-28T00:12:59.395Z,1009.93
2017-01-28T00:13:59.653Z,1009.91
2017-01-28T00:14:59.532Z,1009.93
2017-01-28T00:15:59.197Z,1009.89
2017-01-28T00:16:59.536Z,1009.89
2017-01-28T00:17:59.245Z,1009.88
2017-01-28T00:18:59.385Z,1009.88
2017-01-28T00:19:59.456Z,1009.88
2017-01-28T00:20:59.648Z,1009.85
2017-01-28T00:21:59.591Z,1009.87
2017-01-28T00:22:59.178Z,1009.87
2017-01-28T00:23:59.272Z,1009.83
2017-01-28T00:24:59.602Z,1009.83
2017-01-28T00:25:59.549Z,1009.81
2017-01-28T00:26:59.518Z,1009.82
2017-01-28T00:27:59.451Z,1009.86
2017-01-28T00:28:59.345Z,1009.8
2017-01-28T00:29:59.727Z,1009.79
2017-01-28T00:30:59.711Z,1009.81
2017-01-28T00:31:59.474Z,1009.76
2017-01-28T00:32:59.803Z,1009.76
2017-01-28T00:33:59.682Z,1009.76
2017-01-28T00:34:59.756Z,1009.74
2017-01-28T00:35:59.552Z,1009.74
2017-01-28T00:37:00.011Z,1009.73
2017-01-28T00:37:59.390Z,1009.74
2017-01-28T00:39:00.173Z,1009.71
2017-01-28T00:40:00.121Z,1009.7
2017-01-28T00:40:59.962Z,1009.74
2017-01-28T00:41:59.966Z,1009.68
2017-01-28T00:42:59.865Z,1009.67
2017-01-28T00:44:00.536Z,1009.7
2017-01-28T00:44:59.731Z,1009.68
2017-01-28T00:45:59.798Z,1009.67
2017-01-28T00:46:59.492Z,1009.68
2017-01-28T00:47:59.893Z,1009.71
2017-01-28T00:48:59.819Z,1009.7
2017-01-28T00:49:59.565Z,1009.69
2017-01-28T00:50:59.878Z,1009.68
2017-01-28T00:51:59.893Z,1009.68
2017-01-28T00:52:59.854Z,1009.7
2017-01-28T00:53:59.980Z,1009.66
2017-01-28T00:54:59.811Z,1009.61
2017-01-28T00:55:59.841Z,1009.62
2017-01-28T00:56:59.640Z,1009.68
2017-01-28T00:57:59.976Z,1009.64
2017-01-28T00:59:00.176Z,1009.65
2017-01-28T01:00:00.151Z,1009.63
2017-01-28T01:00:59.907Z,1009.65
2017-01-28T01:01:59.866Z,1009.63
2017-01-28T01:02:59.920Z,1009.65
2017-01-28T01:04:00.189Z,1009.65
2017-01-28T01:04:59.935Z,1009.66
2017-01-28T01:06:00.189Z,1009.65
2017-01-28T01:06:59.896Z,1009.63
2017-01-28T01:08:00.277Z,1009.61
2017-01-28T01:08:59.903Z,1009.62
2017-01-28T01:09:59.888Z,1009.59
2017-01-28T01:10:59.972Z,1009.59
2017-01-28T01:11:59.843Z,1009.59
2017-01-28T01:12:59.721Z,1009.59
2017-01-28T01:13:59.852Z,1009.59
2017-01-28T01:15:00.030Z,1009.56
2017-01-28T01:15:59.777Z,1009.58
2017-01-28T01:17:00.120Z,1009.58
2017-01-28T01:18:00.759Z,1009.56
2017-01-28T01:19:00.431Z,1009.57
2017-01-28T01:20:00.026Z,1009.58
2017-01-28T01:21:00.513Z,1009.64
2017-01-28T01:21:59.994Z,1009.62
2017-01-28T01:22:59.974Z,1009.57
2017-01-28T01:24:00.179Z,1009.55
2017-01-28T01:25:00.114Z,1009.58
2017-01-28T01:26:00.156Z,1009.57
2017-01-28T01:27:00.332Z,1009.52
2017-01-28T01:28:00.743Z,1009.53
2017-01-28T01:29:00.005Z,1009.53
2017-01-28T01:30:00.255Z,1009.57
2017-01-28T01:31:00.298Z,1009.52
2017-01-28T01:32:00.113Z,1009.52
2017-01-28T01:33:00.577Z,1009.52
2017-01-28T01:34:00.446Z,1009.48
2017-01-28T01:35:00.050Z,1009.47
2017-01-28T01:36:00.545Z,1009.48
2017-01-28T01:37:00.112Z,1009.5
2017-01-28T01:38:00.030Z,1009.46
2017-01-28T01:39:00.508Z,1009.47
2017-01-28T01:40:00.140Z,1009.49
2017-01-28T01:41:00.126Z,1009.51
2017-01-28T01:42:00.091Z,1009.52
2017-01-28T01:43:00.291Z,1009.52
2017-01-28T01:44:00.510Z,1009.54
2017-01-28T01:45:00.532Z,1009.52
2017-01-28T01:46:00.141Z,1009.54
2017-01-28T01:47:00.090Z,1009.5
2017-01-28T01:48:00.079Z,1009.46
2017-01-28T01:49:00.256Z,1009.46
2017-01-28T01:50:00.193Z,1009.45
2017-01-28T01:51:00.286Z,1009.4
2017-01-28T01:52:00.231Z,1009.44
2017-01-28T01:53:00.329Z,1009.46
2017-01-28T01:54:00.408Z,1009.42
2017-01-28T01:55:00.424Z,1009.45
2017-01-28T01:56:00.357Z,1009.41
2017-01-28T01:57:00.433Z,1009.43
2017-01-28T01:58:00.683Z,1009.43
2017-01-28T01:59:00.402Z,1009.44
2017-01-28T02:00:00.412Z,1009.44
2017-01-28T02:01:00.894Z,1009.42
2017-01-28T02:02:00.362Z,1009.42
2017-01-28T02:03:00.442Z,1009.41
2017-01-28T02:04:00.267Z,1009.41
2017-01-28T02:05:00.467Z,1009.4
2017-01-28T02:06:00.208Z,1009.38
2017-01-28T02:07:00.653Z,1009.39
2017-01-28T02:08:00.719Z,1009.41
2017-01-28T02:09:00.725Z,1009.37
2017-01-28T02:10:00.523Z,1009.35
2017-01-28T02:11:00.347Z,1009.4
2017-01-28T02:12:01.339Z,1009.39
2017-01-28T02:13:00.779Z,1009.36
2017-01-28T02:14:00.515Z,1009.32
2017-01-28T02:15:00.430Z,1009.32
2017-01-28T02:16:00.657Z,1009.31
2017-01-28T02:17:00.736Z,1009.26
2017-01-28T02:18:00.582Z,1009.35
2017-01-28T02:19:00.484Z,1009.27
2017-01-28T02:20:00.687Z,1009.33
2017-01-28T02:21:00.882Z,1009.34
2017-01-28T02:22:00.991Z,1009.27
2017-01-28T02:23:00.527Z,1009.29
2017-01-28T02:24:00.589Z,1009.26
2017-01-28T02:25:00.541Z,1009.29
2017-01-28T02:26:01.024Z,1009.26
2017-01-28T02:27:00.839Z,1009.28
2017-01-28T02:28:00.612Z,1009.29
2017-01-28T02:29:01.113Z,1009.24
2017-01-28T02:30:00.787Z,1009.26
2017-01-28T02:31:00.642Z,1009.28
2017-01-28T02:32:01.034Z,1009.25
2017-01-28T02:33:00.592Z,1009.28
2017-01-28T02:34:00.893Z,1009.22
2017-01-28T02:35:00.996Z,1009.24
2017-01-28T02:36:00.968Z,1009.22
2017-01-28T02:37:00.579Z,1009.24
2017-01-28T02:38:00.852Z,1009.2
2017-01-28T02:39:00.893Z,1009.21
2017-01-28T02:40:01.012Z,1009.17
2017-01-28T02:41:00.659Z,1009.19
2017-01-28T02:42:00.869Z,1009.16
2017-01-28T02:43:01.474Z,1009.21
2017-01-28T02:44:00.819Z,1009.21
2017-01-28T02:45:00.803Z,1009.14
2017-01-28T02:46:00.612Z,1009.15
2017-01-28T02:47:01.006Z,1009.16
2017-01-28T02:48:00.874Z,1009.19
2017-01-28T02:49:01.146Z,1009.18
2017-01-28T02:50:00.858Z,1009.13
2017-01-28T02:51:01.420Z,1009.17
2017-01-28T02:52:01.043Z,1009.16
2017-01-28T02:53:01.158Z,1009.15
2017-01-28T02:54:00.988Z,1009.15
2017-01-28T02:55:01.765Z,1009.11
2017-01-28T02:56:00.687Z,1009.17
2017-01-28T02:57:00.895Z,1009.16
2017-01-28T02:58:00.847Z,1009.1
2017-01-28T02:59:01.200Z,1009.09
2017-01-28T03:00:01.213Z,1009.07
2017-01-28T03:01:00.925Z,1009.1
2017-01-28T03:02:01.205Z,1009.13
2017-01-28T03:03:00.799Z,1009.1
2017-01-28T03:04:01.171Z,1009.11
2017-01-28T03:05:01.021Z,1009.1
2017-01-28T03:06:01.035Z,1009.06
2017-01-28T03:07:01.023Z,1009.08
2017-01-28T03:08:00.975Z,1009.1
2017-01-28T03:09:01.049Z,1009.1
2017-01-28T03:10:01.169Z,1009.09
2017-01-28T03:11:01.140Z,1009.15
2017-01-28T03:12:01.193Z,1009.09
2017-01-28T03:13:01.213Z,1009.11
2017-01-28T03:14:01.412Z,1009.11
2017-01-28T03:15:01.087Z,1009.14
2017-01-28T03:16:01.572Z,1009.09
2017-01-28T03:17:01.112Z,1009.07
2017-01-28T03:18:02.119Z,1009.06
2017-01-28T03:19:01.123Z,1009.04
2017-01-28T03:20:01.089Z,1009.07
2017-01-28T03:21:01.043Z,1009.08
2017-01-28T03:22:01.679Z,1009.08
2017-01-28T03:23:01.486Z,1009.05
2017-01-28T03:24:01.052Z,1009.11
2017-01-28T03:25:01.489Z,1009.09
2017-01-28T03:26:01.458Z,1009.07
2017-01-28T03:27:01.167Z,1009.1
2017-01-28T03:28:01.308Z,1009.07
2017-01-28T03:29:01.558Z,1009.06
2017-01-28T03:30:01.000Z,1009.08
2017-01-28T03:31:01.120Z,1009.04
2017-01-28T03:32:01.711Z,1009.07
2017-01-28T03:33:01.531Z,1009.04
2017-01-28T03:34:01.262Z,1009.04
2017-01-28T03:35:01.432Z,1009.01
2017-01-28T03:36:01.094Z,1009.01
2017-01-28T03:37:01.441Z,1008.98
2017-01-28T03:38:01.537Z,1009.02
2017-01-28T03:39:01.538Z,1008.99
2017-01-28T03:40:01.225Z,1008.97
2017-01-28T03:41:01.274Z,1008.98
2017-01-28T03:42:01.458Z,1008.99
2017-01-28T03:43:01.255Z,1008.92
2017-01-28T03:44:01.226Z,1008.99
2017-01-28T03:45:01.463Z,1009
2017-01-28T03:46:01.278Z,1008.99
2017-01-28T03:47:01.353Z,1008.97
2017-01-28T03:48:01.448Z,1008.98
2017-01-28T03:49:01.750Z,1008.98
2017-01-28T03:50:01.431Z,1008.96
2017-01-28T03:51:01.316Z,1009
2017-01-28T03:52:01.344Z,1008.95
2017-01-28T03:53:01.304Z,1008.94
2017-01-28T03:54:01.338Z,1008.96
2017-01-28T03:55:01.419Z,1008.94
2017-01-28T03:56:01.497Z,1008.91
2017-01-28T03:57:01.901Z,1008.89
2017-01-28T03:58:01.400Z,1008.94
2017-01-28T03:59:01.609Z,1008.9
2017-01-28T04:00:01.624Z,1008.91
2017-01-28T04:01:01.497Z,1008.89
2017-01-28T04:02:02.026Z,1008.92
2017-01-28T04:03:01.479Z,1008.91
2017-01-28T04:04:01.801Z,1008.91
2017-01-28T04:05:01.616Z,1008.9
2017-01-28T04:06:01.964Z,1008.94
2017-01-28T04:07:01.328Z,1008.93
2017-01-28T04:08:01.803Z,1008.93
2017-01-28T04:09:02.459Z,1008.92
2017-01-28T04:10:01.525Z,1008.89
2017-01-28T04:11:01.595Z,1008.9
2017-01-28T04:12:01.774Z,1008.9
2017-01-28T04:13:01.894Z,1008.87
2017-01-28T04:14:02.074Z,1008.88
2017-01-28T04:15:01.939Z,1008.82
2017-01-28T04:16:01.810Z,1008.83
2017-01-28T04:17:01.914Z,1008.84
2017-01-28T04:18:01.893Z,1008.82
2017-01-28T04:19:02.012Z,1008.82
2017-01-28T04:20:02.485Z,1008.78
2017-01-28T04:21:01.826Z,1008.82
2017-01-28T04:22:01.823Z,1008.8
2017-01-28T04:23:01.644Z,1008.75
2017-01-28T04:24:01.837Z,1008.76
2017-01-28T04:25:01.638Z,1008.75
2017-01-28T04:26:01.687Z,1008.76
2017-01-28T04:27:02.015Z,1008.75
2017-01-28T04:28:02.215Z,1008.71
2017-01-28T04:29:01.788Z,1008.71
2017-01-28T04:30:01.942Z,1008.7
2017-01-28T04:31:01.744Z,1008.73
2017-01-28T04:32:01.852Z,1008.78
2017-01-28T04:33:01.925Z,1008.74
2017-01-28T04:34:01.860Z,1008.71
2017-01-28T04:35:01.924Z,1008.73
2017-01-28T04:36:01.854Z,1008.73
2017-01-28T04:37:01.835Z,1008.73
2017-01-28T04:38:01.992Z,1008.7
2017-01-28T04:39:02.248Z,1008.73
2017-01-28T04:40:01.996Z,1008.72
2017-01-28T04:41:01.761Z,1008.69
2017-01-28T04:42:02.357Z,1008.69
2017-01-28T04:43:01.781Z,1008.7
2017-01-28T04:44:01.978Z,1008.71
2017-01-28T04:45:01.703Z,1008.71
2017-01-28T04:46:01.900Z,1008.7
2017-01-28T04:47:02.207Z,1008.72
2017-01-28T04:48:01.934Z,1008.7
2017-01-28T04:49:01.902Z,1008.7
2017-01-28T04:50:01.921Z,1008.7
2017-01-28T04:51:01.918Z,1008.73
2017-01-28T04:52:01.835Z,1008.71
2017-01-28T04:53:02.120Z,1008.67
2017-01-28T04:54:02.166Z,1008.66
2017-01-28T04:55:02.171Z,1008.66
2017-01-28T04:56:02.122Z,1008.65
2017-01-28T04:57:02.088Z,1008.63
2017-01-28T04:58:02.271Z,1008.64
2017-01-28T04:59:01.970Z,1008.67
2017-01-28T05:00:02.200Z,1008.65
2017-01-28T05:01:02.153Z,1008.65
2017-01-28T05:02:02.633Z,1008.66
2017-01-28T05:03:02.031Z,1008.64
2017-01-28T05:04:01.968Z,1008.66
2017-01-28T05:05:01.963Z,1008.62
2017-01-28T05:06:02.283Z,1008.64
2017-01-28T05:07:02.915Z,1008.6
2017-01-28T05:08:02.234Z,1008.63
2017-01-28T05:09:02.374Z,1008.59
2017-01-28T05:10:02.270Z,1008.65
2017-01-28T05:11:02.474Z,1008.61
2017-01-28T05:12:02.440Z,1008.67
2017-01-28T05:13:02.485Z,1008.66
2017-01-28T05:14:02.199Z,1008.67
2017-01-28T05:15:02.171Z,1008.67
2017-01-28T05:16:02.461Z,1008.69
2017-01-28T05:17:02.605Z,1008.68
2017-01-28T05:18:02.442Z,1008.65
2017-01-28T05:19:02.167Z,1008.66
2017-01-28T05:20:02.569Z,1008.62
2017-01-28T05:21:02.226Z,1008.6
2017-01-28T05:22:02.594Z,1008.6
2017-01-28T05:24:02.114Z,1008.56
2017-01-28T05:25:02.320Z,1008.54
2017-01-28T05:26:03.796Z,1008.54
2017-01-28T05:27:02.621Z,1008.57
2017-01-28T05:28:02.330Z,1008.56
2017-01-28T05:29:02.289Z,1008.55
2017-01-28T05:30:02.262Z,1008.51
2017-01-28T05:31:02.331Z,1008.52
2017-01-28T05:32:02.259Z,1008.5
2017-01-28T05:33:02.223Z,1008.54
2017-01-28T05:34:02.484Z,1008.55
2017-01-28T05:35:02.567Z,1008.53
2017-01-28T05:36:02.993Z,1008.55
2017-01-28T05:37:02.576Z,1008.53
2017-01-28T05:38:02.413Z,1008.55
2017-01-28T05:39:02.742Z,1008.61
2017-01-28T05:40:02.467Z,1008.62
2017-01-28T05:41:02.599Z,1008.65
2017-01-28T05:42:02.585Z,1008.63
2017-01-28T05:43:02.361Z,1008.64
2017-01-28T05:44:02.318Z,1008.55
2017-01-28T05:45:02.754Z,1008.6
2017-01-28T05:46:02.642Z,1008.59
2017-01-28T05:47:02.820Z,1008.59
2017-01-28T05:48:02.621Z,1008.61
2017-01-28T05:49:02.607Z,1008.63
2017-01-28T05:50:02.589Z,1008.58
2017-01-28T05:51:02.648Z,1008.61
2017-01-28T05:52:02.448Z,1008.56
2017-01-28T05:53:02.552Z,1008.58
2017-01-28T05:54:03.069Z,1008.59
2017-01-28T05:55:02.911Z,1008.56
2017-01-28T05:56:03.003Z,1008.58
2017-01-28T05:57:02.890Z,1008.59
2017-01-28T05:58:02.684Z,1008.59
2017-01-28T05:59:02.656Z,1008.61
2017-01-28T06:00:02.953Z,1008.57
2017-01-28T06:01:02.943Z,1008.59
2017-01-28T06:02:02.556Z,1008.57
2017-01-28T06:03:02.745Z,1008.59
2017-01-28T06:04:02.844Z,1008.59
2017-01-28T06:05:02.861Z,1008.61
2017-01-28T06:06:02.722Z,1008.64
2017-01-28T06:07:02.853Z,1008.64
2017-01-28T06:08:03.210Z,1008.58
2017-01-28T06:09:02.838Z,1008.59
2017-01-28T06:10:02.708Z,1008.53
2017-01-28T06:11:03.089Z,1008.57
2017-01-28T06:12:02.593Z,1008.54
2017-01-28T06:13:03.057Z,1008.51
2017-01-28T06:14:02.831Z,1008.58
2017-01-28T06:15:02.679Z,1008.57
2017-01-28T06:16:02.791Z,1008.53
2017-01-28T06:17:02.704Z,1008.54
2017-01-28T06:18:02.599Z,1008.55
2017-01-28T06:19:02.681Z,1008.53
2017-01-28T06:20:02.668Z,1008.5
2017-01-28T06:21:02.852Z,1008.49
2017-01-28T06:22:03.267Z,1008.5
2017-01-28T06:23:02.986Z,1008.52
2017-01-28T06:24:02.696Z,1008.53
2017-01-28T06:25:02.815Z,1008.5
2017-01-28T06:26:02.828Z,1008.5
2017-01-28T06:27:02.720Z,1008.51
2017-01-28T06:28:02.729Z,1008.45
2017-01-28T06:29:02.761Z,1008.46
2017-01-28T06:30:02.782Z,1008.52
2017-01-28T06:31:03.254Z,1008.49
2017-01-28T06:32:03.181Z,1008.5
2017-01-28T06:33:02.858Z,1008.42
2017-01-28T06:34:03.106Z,1008.44
2017-01-28T06:35:03.039Z,1008.46
2017-01-28T06:36:02.986Z,1008.47
2017-01-28T06:37:02.818Z,1008.43
2017-01-28T06:38:02.802Z,1008.4
2017-01-28T06:39:03.651Z,1008.45
2017-01-28T06:40:03.266Z,1008.46
2017-01-28T06:41:03.168Z,1008.46
2017-01-28T06:42:02.927Z,1008.41
2017-01-28T06:43:03.824Z,1008.46
2017-01-28T06:44:03.186Z,1008.47
2017-01-28T06:45:03.024Z,1008.41
2017-01-28T06:46:03.061Z,1008.38
2017-01-28T06:47:03.254Z,1008.42
2017-01-28T06:48:03.107Z,1008.42
2017-01-28T06:49:03.246Z,1008.39
2017-01-28T06:50:03.004Z,1008.37
2017-01-28T06:51:03.753Z,1008.34
2017-01-28T06:52:02.880Z,1008.36
2017-01-28T06:53:03.102Z,1008.34
2017-01-28T06:54:04.480Z,1008.38
2017-01-28T06:55:03.431Z,1008.37
2017-01-28T06:56:03.219Z,1008.4
2017-01-28T06:57:03.383Z,1008.36
2017-01-28T06:58:03.584Z,1008.35
2017-01-28T06:59:03.309Z,1008.35
2017-01-28T07:00:03.148Z,1008.32
2017-01-28T07:01:02.937Z,1008.33
2017-01-28T07:02:03.049Z,1008.34
2017-01-28T07:03:03.630Z,1008.3
2017-01-28T07:04:03.528Z,1008.32
2017-01-28T07:05:03.183Z,1008.31
2017-01-28T07:06:03.833Z,1008.3
2017-01-28T07:07:03.582Z,1008.34
2017-01-28T07:08:03.109Z,1008.3
2017-01-28T07:09:03.164Z,1008.3
2017-01-28T07:10:03.541Z,1008.33
2017-01-28T07:11:03.160Z,1008.31
2017-01-28T07:12:03.188Z,1008.26
2017-01-28T07:13:03.853Z,1008.23
2017-01-28T07:14:03.178Z,1008.3
2017-01-28T07:15:03.777Z,1008.27
2017-01-28T07:16:03.209Z,1008.26
2017-01-28T07:17:03.811Z,1008.27
2017-01-28T07:18:03.192Z,1008.24
2017-01-28T07:19:03.741Z,1008.27
2017-01-28T07:20:03.731Z,1008.26
2017-01-28T07:21:03.995Z,1008.3
2017-01-28T07:22:03.291Z,1008.3
2017-01-28T07:23:03.724Z,1008.3
2017-01-28T07:24:03.611Z,1008.29
2017-01-28T07:25:03.704Z,1008.31
2017-01-28T07:26:03.565Z,1008.28
2017-01-28T07:27:03.717Z,1008.3
2017-01-28T07:28:03.667Z,1008.28
2017-01-28T07:29:03.686Z,1008.32
2017-01-28T07:30:03.788Z,1008.32
2017-01-28T07:31:03.638Z,1008.31
2017-01-28T07:32:03.319Z,1008.34
2017-01-28T07:33:03.809Z,1008.3
2017-01-28T07:34:03.495Z,1008.31
2017-01-28T07:35:03.778Z,1008.33
2017-01-28T07:36:03.513Z,1008.37
2017-01-28T07:37:03.616Z,1008.31
2017-01-28T07:38:04.059Z,1008.33
2017-01-28T07:39:03.821Z,1008.36
2017-01-28T07:40:03.700Z,1008.32
2017-01-28T07:41:03.824Z,1008.34
2017-01-28T07:42:03.771Z,1008.34
2017-01-28T07:43:03.809Z,1008.36
2017-01-28T07:44:03.657Z,1008.35
2017-01-28T07:45:03.545Z,1008.33
2017-01-28T07:46:03.700Z,1008.35
2017-01-28T07:47:03.779Z,1008.37
2017-01-28T07:48:04.001Z,1008.33
2017-01-28T07:49:03.924Z,1008.35
2017-01-28T07:50:03.685Z,1008.34
2017-01-28T07:51:03.749Z,1008.28
2017-01-28T07:52:04.256Z,1008.32
2017-01-28T07:53:04.078Z,1008.35
2017-01-28T07:54:04.264Z,1008.32
2017-01-28T07:55:03.738Z,1008.35
2017-01-28T07:56:03.655Z,1008.35
2017-01-28T07:57:04.019Z,1008.35
2017-01-28T07:58:03.602Z,1008.34
2017-01-28T07:59:03.852Z,1008.34
2017-01-28T08:00:04.035Z,1008.33
2017-01-28T08:01:03.660Z,1008.33
2017-01-28T08:02:03.544Z,1008.31
2017-01-28T08:03:03.779Z,1008.33
2017-01-28T08:04:03.999Z,1008.32
2017-01-28T08:05:04.015Z,1008.25
2017-01-28T08:06:03.979Z,1008.29
2017-01-28T08:07:04.040Z,1008.25
2017-01-28T08:08:04.041Z,1008.27
2017-01-28T08:09:04.040Z,1008.3
2017-01-28T08:10:04.016Z,1008.31
2017-01-28T08:11:03.938Z,1008.32
2017-01-28T08:12:03.583Z,1008.36
2017-01-28T08:13:03.698Z,1008.33
2017-01-28T08:14:03.703Z,1008.38
2017-01-28T08:15:03.768Z,1008.33
2017-01-28T08:16:04.402Z,1008.4
2017-01-28T08:17:03.880Z,1008.37
2017-01-28T08:18:03.836Z,1008.36
2017-01-28T08:19:04.262Z,1008.38
2017-01-28T08:20:04.014Z,1008.29
2017-01-28T08:21:04.111Z,1008.33
2017-01-28T08:22:03.978Z,1008.3
2017-01-28T08:23:04.235Z,1008.3
2017-01-28T08:24:04.794Z,1008.29
2017-01-28T08:25:03.945Z,1008.31
2017-01-28T08:26:04.396Z,1008.3
2017-01-28T08:27:04.587Z,1008.3
2017-01-28T08:28:04.708Z,1008.27
2017-01-28T08:29:03.747Z,1008.29
2017-01-28T08:30:04.568Z,1008.29
2017-01-28T08:31:04.762Z,1008.3
2017-01-28T08:32:04.127Z,1008.29
2017-01-28T08:33:03.899Z,1008.28
2017-01-28T08:34:03.963Z,1008.27
2017-01-28T08:35:03.904Z,1008.31
2017-01-28T08:36:04.470Z,1008.28
2017-01-28T08:37:04.166Z,1008.28
2017-01-28T08:38:04.200Z,1008.23
2017-01-28T08:39:04.281Z,1008.27
2017-01-28T08:40:04.474Z,1008.28
2017-01-28T08:41:04.085Z,1008.28
2017-01-28T08:42:04.407Z,1008.25
2017-01-28T08:43:04.748Z,1008.23
2017-01-28T08:44:04.104Z,1008.26
2017-01-28T08:45:04.073Z,1008.29
2017-01-28T08:46:04.357Z,1008.26
2017-01-28T08:47:04.406Z,1008.27
2017-01-28T08:48:04.370Z,1008.22
2017-01-28T08:49:04.642Z,1008.22
2017-01-28T08:50:04.719Z,1008.23
2017-01-28T08:51:04.342Z,1008.22
2017-01-28T08:52:04.197Z,1008.23
2017-01-28T08:53:04.240Z,1008.24
2017-01-28T08:54:04.263Z,1008.25
2017-01-28T08:55:04.253Z,1008.23
2017-01-28T08:56:04.283Z,1008.22
2017-01-28T08:57:04.508Z,1008.23
2017-01-28T08:58:04.482Z,1008.21
2017-01-28T08:59:04.402Z,1008.23
2017-01-28T09:00:04.177Z,1008.22
2017-01-28T09:01:04.196Z,1008.2
2017-01-28T09:02:04.426Z,1008.22
2017-01-28T09:03:04.124Z,1008.18
2017-01-28T09:04:04.238Z,1008.22
2017-01-28T09:05:04.419Z,1008.23
2017-01-28T09:06:05.156Z,1008.23
2017-01-28T09:07:04.721Z,1008.22
2017-01-28T09:08:04.335Z,1008.22
2017-01-28T09:09:04.374Z,1008.19
2017-01-28T09:10:04.286Z,1008.23
2017-01-28T09:11:04.348Z,1008.18
2017-01-28T09:12:05.428Z,1008.22
2017-01-28T09:13:04.792Z,1008.23
2017-01-28T09:14:04.359Z,1008.2
2017-01-28T09:15:04.423Z,1008.26
2017-01-28T09:16:05.436Z,1008.21
2017-01-28T09:17:04.611Z,1008.2
2017-01-28T09:18:04.609Z,1008.22
2017-01-28T09:19:04.448Z,1008.18
2017-01-28T09:20:04.540Z,1008.22
2017-01-28T09:21:04.347Z,1008.17
2017-01-28T09:22:05.186Z,1008.17
2017-01-28T09:23:05.142Z,1008.19
2017-01-28T09:24:04.367Z,1008.2
2017-01-28T09:25:04.740Z,1008.17
2017-01-28T09:26:04.646Z,1008.14
2017-01-28T09:27:05.116Z,1008.15
2017-01-28T09:28:04.897Z,1008.16
2017-01-28T09:29:04.505Z,1008.13
2017-01-28T09:30:04.691Z,1008.18
2017-01-28T09:31:04.759Z,1008.14
2017-01-28T09:32:04.613Z,1008.11
2017-01-28T09:33:04.525Z,1008.13
2017-01-28T09:34:05.241Z,1008.13
2017-01-28T09:35:05.060Z,1008.1
2017-01-28T09:36:04.584Z,1008.09
2017-01-28T09:37:04.783Z,1008.1
2017-01-28T09:38:05.066Z,1008.12
2017-01-28T09:39:04.773Z,1008.14
2017-01-28T09:40:04.762Z,1008.15
2017-01-28T09:41:05.104Z,1008.15
2017-01-28T09:42:04.947Z,1008.13
2017-01-28T09:43:05.405Z,1008.09
2017-01-28T09:44:04.740Z,1008.08
2017-01-28T09:45:04.985Z,1008.05
2017-01-28T09:46:04.968Z,1008.08
2017-01-28T09:47:04.759Z,1008.09
2017-01-28T09:48:04.910Z,1008.06
2017-01-28T09:49:04.733Z,1008.04
2017-01-28T09:50:05.255Z,1008.01
2017-01-28T09:51:04.762Z,1007.98
2017-01-28T09:52:05.110Z,1007.99
2017-01-28T09:53:04.714Z,1008.04
2017-01-28T09:54:05.069Z,1008.01
2017-01-28T09:55:04.923Z,1008.05
2017-01-28T09:56:04.961Z,1008.06
2017-01-28T09:57:05.335Z,1008.02
2017-01-28T09:58:05.376Z,1008.01
2017-01-28T09:59:05.251Z,1007.97
2017-01-28T10:00:05.161Z,1007.99
2017-01-28T10:01:05.385Z,1008.02
2017-01-28T10:02:05.688Z,1007.95
2017-01-28T10:03:05.367Z,1007.96
2017-01-28T10:04:05.296Z,1008.02
2017-01-28T10:05:05.311Z,1007.98
2017-01-28T10:06:05.404Z,1007.99
2017-01-28T10:07:05.091Z,1007.95
2017-01-28T10:08:04.928Z,1007.98
2017-01-28T10:09:05.418Z,1007.94
2017-01-28T10:10:05.423Z,1007.92
2017-01-28T10:11:05.624Z,1007.89
2017-01-28T10:12:04.960Z,1007.93
2017-01-28T10:13:05.478Z,1007.91
2017-01-28T10:14:05.142Z,1007.91
2017-01-28T10:15:05.209Z,1007.92
2017-01-28T10:16:05.382Z,1007.87
2017-01-28T10:17:05.449Z,1007.88
2017-01-28T10:18:05.682Z,1007.87
2017-01-28T10:19:05.346Z,1007.82
2017-01-28T10:20:05.301Z,1007.82
2017-01-28T10:21:05.296Z,1007.83
2017-01-28T10:22:05.626Z,1007.79
2017-01-28T10:23:05.374Z,1007.8
2017-01-28T10:24:05.304Z,1007.75
2017-01-28T10:25:06.141Z,1007.71
2017-01-28T10:26:05.685Z,1007.73
2017-01-28T10:27:05.589Z,1007.74
2017-01-28T10:28:05.294Z,1007.71
2017-01-28T10:29:05.309Z,1007.77
2017-01-28T10:30:05.757Z,1007.77
2017-01-28T10:31:05.306Z,1007.74
2017-01-28T10:32:05.675Z,1007.74
2017-01-28T10:33:05.693Z,1007.71
2017-01-28T10:34:05.277Z,1007.72
2017-01-28T10:35:05.645Z,1007.75
2017-01-28T10:36:05.400Z,1007.69
2017-01-28T10:37:05.689Z,1007.71
2017-01-28T10:38:05.653Z,1007.74
2017-01-28T10:39:06.212Z,1007.74
2017-01-28T10:40:05.937Z,1007.72
2017-01-28T10:41:05.610Z,1007.74
2017-01-28T10:42:05.730Z,1007.79
2017-01-28T10:43:05.625Z,1007.77
2017-01-28T10:44:05.713Z,1007.8
2017-01-28T10:45:05.976Z,1007.79
2017-01-28T10:46:05.630Z,1007.8
2017-01-28T10:47:06.022Z,1007.73
2017-01-28T10:48:05.670Z,1007.76
2017-01-28T10:49:06.119Z,1007.76
2017-01-28T10:50:06.084Z,1007.7
2017-01-28T10:51:06.028Z,1007.7
2017-01-28T10:52:05.900Z,1007.66
2017-01-28T10:53:05.652Z,1007.69
2017-01-28T10:54:06.562Z,1007.7
2017-01-28T10:55:05.893Z,1007.7
2017-01-28T10:56:05.774Z,1007.69
2017-01-28T10:57:06.325Z,1007.68
2017-01-28T10:58:05.797Z,1007.72
2017-01-28T10:59:05.967Z,1007.65
2017-01-28T11:00:06.189Z,1007.64
2017-01-28T11:01:05.951Z,1007.63
2017-01-28T11:02:05.737Z,1007.63
2017-01-28T11:03:06.015Z,1007.58
2017-01-28T11:04:05.838Z,1007.56
2017-01-28T11:05:06.014Z,1007.56
2017-01-28T11:06:05.934Z,1007.58
2017-01-28T11:07:05.896Z,1007.56
2017-01-28T11:08:05.967Z,1007.53
2017-01-28T11:09:05.904Z,1007.5
2017-01-28T11:10:06.062Z,1007.53
2017-01-28T11:11:06.446Z,1007.54
2017-01-28T11:12:06.305Z,1007.49
2017-01-28T11:13:06.187Z,1007.55
2017-01-28T11:14:06.113Z,1007.57
2017-01-28T11:15:06.292Z,1007.55
2017-01-28T11:16:06.006Z,1007.57
2017-01-28T11:17:06.141Z,1007.57
2017-01-28T11:18:06.149Z,1007.55
2017-01-28T11:19:06.256Z,1007.57
2017-01-28T11:20:06.170Z,1007.57
2017-01-28T11:21:06.719Z,1007.57
2017-01-28T11:22:06.252Z,1007.54
2017-01-28T11:23:06.466Z,1007.53
2017-01-28T11:24:06.478Z,1007.48
2017-01-28T11:25:06.382Z,1007.52
2017-01-28T11:26:06.294Z,1007.52
2017-01-28T11:27:06.412Z,1007.46
2017-01-28T11:28:06.631Z,1007.44
2017-01-28T11:29:06.175Z,1007.45
2017-01-28T11:30:06.221Z,1007.44
2017-01-28T11:31:06.443Z,1007.44
2017-01-28T11:32:06.617Z,1007.46
2017-01-28T11:33:06.732Z,1007.46
2017-01-28T11:34:06.305Z,1007.47
2017-01-28T11:35:07.681Z,1007.45
2017-01-28T11:36:06.374Z,1007.43
2017-01-28T11:37:06.479Z,1007.47
2017-01-28T11:38:06.557Z,1007.44
2017-01-28T11:39:06.502Z,1007.44
2017-01-28T11:40:06.322Z,1007.41
2017-01-28T11:41:06.660Z,1007.41
2017-01-28T11:42:06.525Z,1007.38
2017-01-28T11:43:06.960Z,1007.33
2017-01-28T11:44:06.474Z,1007.33
2017-01-28T11:45:06.569Z,1007.3
2017-01-28T11:46:06.450Z,1007.25
2017-01-28T11:47:06.609Z,1007.32
2017-01-28T11:48:06.485Z,1007.25
2017-01-28T11:49:06.458Z,1007.21
2017-01-28T11:50:07.030Z,1007.23
2017-01-28T11:51:06.715Z,1007.21
2017-01-28T11:52:06.989Z,1007.19
2017-01-28T11:53:06.554Z,1007.26
2017-01-28T11:54:07.014Z,1007.24
2017-01-28T11:55:06.540Z,1007.2
2017-01-28T11:56:07.132Z,1007.2
2017-01-28T11:57:07.143Z,1007.16
2017-01-28T11:58:06.743Z,1007.16
2017-01-28T11:59:06.915Z,1007.12
2017-01-28T12:00:06.715Z,1007.12
2017-01-28T12:01:06.719Z,1007.1
2017-01-28T12:02:06.715Z,1007.03
2017-01-28T12:03:06.699Z,1007.08
2017-01-28T12:04:07.111Z,1007.05
2017-01-28T12:05:07.730Z,1007.02
2017-01-28T12:06:07.091Z,1007
2017-01-28T12:07:06.846Z,1006.95
2017-01-28T12:08:06.879Z,1006.92
2017-01-28T12:09:07.265Z,1006.9
2017-01-28T12:10:07.049Z,1006.91